Vidsel, Sweden

8:25 PM CEST on April 27, 2015 (GMT +0200)
Vidsel Air Base | | Change Station
CLOSE
Current Station
Airport
Location: Vidsel,
Elevation: 597 ft
Nearby Weather Stations

Elev 597 ft 65.88 °N, 20.14 °E | Updated 35 minutes ago

Partly Cloudy
Partly Cloudy
41 °F
Feels Like 36 °F
N
8
Wind Variable Wind from WNW

Today
High -- | Low -- °F
--% Chance of Precip.
Yesterday
High -- | Low -- °F
Precip. -- in
4:15 AM 9:01 PM
Waxing Gibbous, 67% visible
Pressure 29.59 in
Visibility 6.2 miles
Clouds Few 3900 ft
Windchill 36 °F
Dew Point 30 °F
Humidity 65%
Rainfall 0.00 in
Snow Depth Not available.
UV 0 out of 12
Pollen Not available.
Air Quality Not available.
Flu Activity Not available.
METAR ESPE 271750Z AUTO 29007KT 9999 FEW039/// 05/M01 Q1002

More Conditions Fewer Conditions

Pressure 29.59 in
Visibility 6.2 miles
Clouds Few 3900 ft
Windchill 36 °F
Dew Point 30 °F
Humidity 65%
Rainfall 0.00 in
Snow Depth Not available.
UV 0 out of 12
Pollen Not available.
Air Quality Not available.
Flu Activity Not available.
METAR ESPE 271750Z AUTO 29007KT 9999 FEW039/// 05/M01 Q1002

More Conditions Fewer Conditions

10-Day Weather Forecast

Almanac

Astronomy

Apr. 27, 2015 Rise Set
Actual Time
Civil Twilight
Nautical Twilight
Astronomical Twilight
Moon
Length of Visible Light
Length of Day
Tomorrow will be .
, % of the Moon is Illuminated

Today's Extremes

Country Highs Country Lows

Community

WunderPhotos

Upload Photos

1,817,395 photos uploaded!

WunderBlogs® & News

Nearby

Air Quality

  Air Quality AQ Index Pollutant
Not available.

Snow Depth

Station Depth Elevation

Earthquake Activity

City Distance Mag. Time & Date
Minimum magnitude displayed is 2.5.

Coastal Water Temperatures

Place Temperature

Stations

Nearby Weather Stations

Station Location Temp. Windchill Dew Point Humidity Wind Precip. Elev Updated Type